Солнечная

Карта отелей и гостиниц, располагающихся рядом с аэропортом Солнечная :

Солнечная
Воронеж
Воронежская область 51° 47' 2.1804" N, 39° 12' 4.6512" E
Код аэродрома ИКАО
UUOZ
Код аэродрома RU
УУОЗ
Координаты
N51.78394° E039.20129°
Превышение над уровнем моря
163
Основная полоса
03/21
Курс магнитный
027/207
Длина основной ВПП
21
Ширина основной ВПП
21
Покрытие основной ВПП
Твёрдое (железобетон)
Освещение ВПП
По запросу
Тип: 
Вертодром
Класс аэродрома: 
Принадлежность: 
АОН
Статус: 
Действующий
Сайт: 
www.suncopter.ru
E-mail аэродрома: 
club@suncopter.ru
Страна: 
Россия
Регион: 
Воронежская область
Город: 
Воронеж
Дополнительная информация: 
Владелец ПП: НП "Вертолетный клуб «Солнечный». АНППП зарегистрирован в МТУ ВТ ЦР ФАВТ 11 фев 2013 №ЦП3-290. Принимает ВС до 13,5 т.


Найти трансфер

С помощью этой формы Вы можете найти трансфер из аэропорта Солнечная в город, аэропорт или вокзал:

Погода в аэропортах:

Авиационная погода в Храброво

Регион: 
Погода METAR: 
UMKK 212300Z 29009MPS 9000 -RA BKN005 OVC017 09/09 Q1007 R24/290095 NOSIG RMK QBB150 OBST OBSC QFE754/1005
Время наблюдения
2022-05-21T23:00:00Z
Температура C
9.0
Точка росы
9.0
Направление ветра
290
Скорость ветра (узлы)
17
Метео видимость
5.59
Облачность
BKN
OVC
Нижняя граница облачности (футы)
500
1700
Явления погоды
-RA
Условия полета
IFR
Аэропорт подробнее: 
BKN – значительная (рассеянная, разорванная) облачность; OVC – сплошная облачность;
-RA - слабый дождь;

Авиационная погода в Ивало

Регион: 
Погода METAR: 
EFIV 212250Z AUTO 11003KT 9999 -RA FEW016 BKN035 07/06 Q1011
Время наблюдения
2022-05-21T22:50:00Z
Температура C
7.0
Точка росы
6.0
Направление ветра
110
Скорость ветра (узлы)
3
Метео видимость
6.21
Облачность
FEW
BKN
Нижняя граница облачности (футы)
1600
3500
Явления погоды
-RA
Условия полета
VFR
FEW – незначительная облачность; BKN – значительная (рассеянная, разорванная) облачность;
-RA - слабый дождь;

Авиационная погода в Актобе

Регион: 
Погода METAR: 
UATT 212300Z 29009MPS 9000 -RA BKN008 OVC036 06/04 Q1003 NOSIG RMK QFE733/0977
Время наблюдения
2022-05-21T23:00:00Z
Температура C
6.0
Точка росы
4.0
Направление ветра
290
Скорость ветра (узлы)
17
Метео видимость
5.59
Облачность
BKN
OVC
Нижняя граница облачности (футы)
800
3600
Явления погоды
-RA
Условия полета
IFR
Аэропорт подробнее: 
BKN – значительная (рассеянная, разорванная) облачность; OVC – сплошная облачность;
-RA - слабый дождь;

Авиационная погода в Гомеле

Регион: 
Погода METAR: 
UMGG 212300Z 28007G12MPS 5000 -SHRA BKN015CB 13/11 Q1000 NOSIG
Время наблюдения
2022-05-21T23:00:00Z
Температура C
13.0
Точка росы
11.0
Направление ветра
280
Скорость ветра (узлы)
14
Метео видимость
3.11
Облачность
BKN
Нижняя граница облачности (футы)
1500
Явления погоды
-SHRA
Условия полета
MVFR
Аэропорт подробнее: 
BKN – значительная (рассеянная, разорванная) облачность;
-SHRA - слабый ливневой дождь;